Time;durP1;ratioP1;P1;durP2;ratioP2;P2;SDS_P1;SDS_P2;PMS_P1;PMS_P2;Temp;Humidity;BMP_temperature;BMP_pressure;BME280_temperature;BME280_humidity;BME280_pressure;Samples;Min_cycle;Max_cycle;Signal;HPM_P1;HPM_P2
2022/09/01 00:00:59;;;;;;;;;17.25;16.25;;;;;23.35;52.56;101044.06;5094239;28;45234;-83
2022/09/01 00:03:25;;;;;;;;;17.50;15.75;;;;;23.32;52.06;101049.50;5093962;28;44982;-83
2022/09/01 00:05:53;;;;;;;;;17.75;16.75;;;;;23.29;52.63;101049.53;5075696;28;45230;-83
2022/09/01 00:08:20;;;;;;;;;18.50;18.50;;;;;23.25;53.06;101051.38;5093892;28;45753;-84
2022/09/01 00:10:46;;;;;;;;;18.75;16.25;;;;;23.22;52.57;101043.38;5090443;28;45875;-83
2022/09/01 00:13:11;;;;;;;;;18.50;18.00;;;;;23.20;52.82;101042.47;5094105;28;44898;-83
2022/09/01 00:15:37;;;;;;;;;20.25;19.50;;;;;23.18;52.83;101041.63;5093917;28;44994;-83
2022/09/01 00:18:02;;;;;;;;;19.25;17.50;;;;;23.08;52.79;101030.13;5074853;28;47114;-83
2022/09/01 00:20:28;;;;;;;;;17.75;15.75;;;;;22.94;53.29;101013.31;5093351;28;44950;-83
2022/09/01 00:22:54;;;;;;;;;17.25;16.25;;;;;23.05;53.18;101040.00;5093324;28;45123;-83
2022/09/01 00:25:20;;;;;;;;;20.50;19.00;;;;;23.02;53.31;101040.94;5092393;28;45125;-83
2022/09/01 00:27:47;;;;;;;;;17.25;17.25;;;;;22.90;53.70;101020.50;5092961;28;45370;-82
2022/09/01 00:30:12;;;;;;;;;18.75;17.75;;;;;22.85;53.89;101013.38;5093213;28;45151;-82
2022/09/01 00:32:38;;;;;;;;;17.00;16.75;;;;;22.96;53.73;101035.66;5075233;28;45081;-83
2022/09/01 00:35:04;;;;;;;;;20.50;19.50;;;;;22.95;53.42;101036.53;5094058;28;44942;-83
2022/09/01 00:37:30;;;;;;;;;18.00;16.75;;;;;22.89;53.55;101026.78;5091144;28;46959;-83
2022/09/01 00:39:55;;;;;;;;;18.25;18.25;;;;;22.80;53.08;101015.22;5091366;28;45513;-83
2022/09/01 00:42:21;;;;;;;;;18.25;18.00;;;;;22.92;53.71;101033.91;5092349;28;45156;-83
2022/09/01 00:44:46;;;;;;;;;19.75;19.75;;;;;22.83;54.00;101023.25;5092338;28;44992;-83
2022/09/01 00:47:12;;;;;;;;;17.75;17.75;;;;;22.87;53.60;101038.41;5093023;28;45629;-83
2022/09/01 00:49:42;;;;;;;;;17.50;17.25;;;;;22.72;53.81;101014.44;5093242;28;45008;-82
2022/09/01 00:52:12;;;;;;;;;17.75;16.50;;;;;22.79;54.08;101035.78;5093466;28;44961;-83
2022/09/01 00:54:42;;;;;;;;;17.25;17.00;;;;;22.75;54.31;101027.78;5092284;28;45106;-83
2022/09/01 00:57:11;;;;;;;;;19.00;18.50;;;;;22.70;54.04;101026.97;5090513;28;45142;-84
2022/09/01 00:59:44;;;;;;;;;16.75;16.75;;;;;22.53;54.61;101009.28;5091862;28;45475;-83
2022/09/01 01:02:10;;;;;;;;;16.50;16.50;;;;;22.54;54.78;101021.75;5093004;28;44950;-84
2022/09/01 01:04:36;;;;;;;;;17.25;17.25;;;;;22.47;55.19;101019.19;5092268;28;45009;-83
2022/09/01 01:07:02;;;;;;;;;18.50;18.25;;;;;22.41;55.69;101020.09;5091812;28;45148;-83
2022/09/01 01:09:31;;;;;;;;;17.50;17.50;;;;;22.35;55.11;101015.69;5092460;28;45089;-83
2022/09/01 01:11:59;;;;;;;;;19.75;19.50;;;;;22.29;55.37;101005.06;5091593;28;45633;-83
2022/09/01 01:14:26;;;;;;;;;16.50;16.50;;;;;22.32;55.71;101022.91;5093009;28;44851;-83
2022/09/01 01:16:53;;;;;;;;;17.50;17.50;;;;;22.24;55.19;101019.38;5092793;28;45053;-83
2022/09/01 01:25:25;;;;;;;;;19.00;18.25;;;;;22.22;56.03;101019.41;5090868;28;45163;-83
2022/09/01 01:27:50;;;;;;;;;22.00;21.25;;;;;22.15;56.18;101020.34;5092248;28;45749;-83
2022/09/01 01:30:17;;;;;;;;;18.00;16.50;;;;;22.05;56.01;101007.91;5074068;28;44984;-83
2022/09/01 01:32:44;;;;;;;;;20.50;20.25;;;;;22.07;56.11;101020.41;5092714;28;44961;-82
2022/09/01 01:35:13;;;;;;;;;21.00;19.50;;;;;22.04;56.41;101019.53;5092356;28;45002;-83
2022/09/01 01:37:47;;;;;;;;;20.00;18.75;;;;;21.99;56.99;101026.69;5089601;28;45506;-81
2022/09/01 01:40:16;;;;;;;;;17.25;17.25;;;;;21.94;56.86;101024.06;5090223;28;45614;-83
2022/09/01 01:42:47;;;;;;;;;18.25;17.25;;;;;21.80;57.17;101012.56;5091835;28;45001;-83
2022/09/01 01:45:16;;;;;;;;;19.50;18.25;;;;;21.80;57.05;101023.28;5092197;28;44927;-83
2022/09/01 01:47:50;;;;;;;;;18.50;17.50;;;;;21.65;57.09;100994.84;5092456;28;45435;-83
2022/09/01 01:50:15;;;;;;;;;20.25;19.25;;;;;21.81;57.13;101027.72;5091717;28;45118;-83
2022/09/01 01:52:41;;;;;;;;;18.75;18.25;;;;;21.76;57.40;101024.19;5092634;28;45450;-83
2022/09/01 01:55:11;;;;;;;;;17.50;17.50;;;;;21.71;57.55;101017.97;5092042;27;44969;-83
2022/09/01 01:57:40;;;;;;;;;19.50;18.00;;;;;21.66;57.69;101017.13;5090829;28;45427;-83
2022/09/01 02:00:07;;;;;;;;;18.75;18.25;;;;;21.52;57.93;101003.81;5091308;28;45149;-82
2022/09/01 02:02:32;;;;;;;;;19.50;18.50;;;;;21.44;58.24;101000.34;5092062;28;45076;-83
2022/09/01 02:04:58;;;;;;;;;17.00;16.33;;;;;21.42;58.22;101008.34;5091405;28;53557;-83
2022/09/01 02:07:23;;;;;;;;;19.75;19.50;;;;;21.48;58.54;101028.84;5088501;28;45512;-83
2022/09/01 02:09:49;;;;;;;;;21.00;21.00;;;;;21.31;58.61;100999.50;5071353;28;45070;-83
2022/09/01 02:12:18;;;;;;;;;17.75;16.50;;;;;21.36;58.67;101011.06;5089011;28;45771;-83
2022/09/01 02:14:43;;;;;;;;;18.75;18.75;;;;;21.40;59.19;101031.53;5092592;28;45290;-83
2022/09/01 02:17:08;;;;;;;;;20.00;18.25;;;;;21.43;59.29;101041.31;5091069;28;45965;-83
2022/09/01 02:19:42;;;;;;;;;18.33;17.67;;;;;21.40;58.87;101031.53;5091620;28;46504;-83
2022/09/01 02:22:10;;;;;;;;;18.50;17.75;;;;;21.35;59.50;101030.69;5091349;28;45091;-82
2022/09/01 02:24:37;;;;;;;;;18.50;17.50;;;;;21.28;59.29;101028.88;5091569;28;44926;-82
2022/09/01 02:27:04;;;;;;;;;19.25;18.50;;;;;21.32;59.30;101041.38;5078931;28;47184;-83
2022/09/01 02:29:29;;;;;;;;;21.75;20.00;;;;;21.28;59.51;101034.22;5049766;28;45613;-83
2022/09/01 02:31:56;;;;;;;;;20.00;19.50;;;;;21.28;59.51;101039.56;5050634;28;45210;-83
2022/09/01 02:34:24;;;;;;;;;22.00;20.50;;;;;21.26;59.66;101039.59;5051140;28;44922;-82
2022/09/01 02:36:53;;;;;;;;;19.25;18.50;;;;;21.18;59.80;101036.09;5048855;28;45032;-83
2022/09/01 02:39:23;;;;;;;;;19.50;18.50;;;;;21.22;59.86;101040.50;5050669;28;45544;-82
2022/09/01 02:41:49;;;;;;;;;18.00;17.50;;;;;21.11;60.22;101028.97;5048670;28;45524;-83
2022/09/01 02:44:18;;;;;;;;;17.00;16.50;;;;;21.19;59.86;101045.00;5050652;28;44964;-82
2022/09/01 02:46:45;;;;;;;;;20.00;17.50;;;;;21.16;60.32;101039.66;5049327;28;46118;-82
2022/09/01 02:49:18;;;;;;;;;14.75;14.75;;;;;20.99;60.39;101013.00;5051176;28;45093;-82
2022/09/01 02:51:47;;;;;;;;;17.50;17.50;;;;;21.13;60.22;101033.44;5051127;28;45019;-82
2022/09/01 02:54:18;;;;;;;;;19.75;19.50;;;;;21.12;60.49;101036.97;5048747;28;44908;-83
2022/09/01 02:56:46;;;;;;;;;17.50;17.25;;;;;21.03;60.60;101020.06;5048617;28;46037;-83
2022/09/01 02:59:20;;;;;;;;;19.00;19.00;;;;;21.10;60.54;101033.44;5047281;28;45568;-82
2022/09/01 03:01:47;;;;;;;;;19.25;19.00;;;;;21.11;60.70;101035.19;5064474;28;45074;-82
2022/09/01 03:04:13;;;;;;;;;18.75;18.75;;;;;21.04;60.62;101025.44;5050868;28;45186;-82
2022/09/01 03:06:39;;;;;;;;;17.75;17.75;;;;;20.90;60.42;101000.56;5050106;28;45360;-83
2022/09/01 03:09:08;;;;;;;;;17.50;17.50;;;;;21.01;61.01;101021.88;5053567;28;45174;-83
2022/09/01 03:11:36;;;;;;;;;19.00;19.00;;;;;20.98;61.03;101030.78;5053190;28;44965;-82
2022/09/01 03:14:03;;;;;;;;;17.75;16.25;;;;;20.84;60.90;101004.13;5053965;28;45481;-83
2022/09/01 03:16:29;;;;;;;;;19.75;19.50;;;;;20.94;61.54;101020.16;5053632;28;47742;-83
2022/09/01 03:18:55;;;;;;;;;18.00;17.25;;;;;20.93;61.07;101018.34;5052490;28;45484;-83
2022/09/01 03:21:22;;;;;;;;;20.25;18.75;;;;;20.92;61.33;101022.78;5052745;28;45064;-83
2022/09/01 03:23:49;;;;;;;;;18.50;18.00;;;;;20.91;61.51;101015.69;5053931;28;45206;-83
2022/09/01 03:26:18;;;;;;;;;18.00;18.00;;;;;20.88;61.63;101015.69;5052465;28;45831;-83
2022/09/01 03:28:43;;;;;;;;;20.75;18.75;;;;;20.87;61.66;101013.91;5052234;28;45769;-83
2022/09/01 03:31:09;;;;;;;;;20.00;19.25;;;;;20.84;61.94;101008.59;5053716;28;45153;-83
2022/09/01 03:33:35;;;;;;;;;21.00;20.25;;;;;20.77;61.94;100997.03;5051939;28;45187;-83
2022/09/01 03:36:01;;;;;;;;;18.50;18.25;;;;;20.82;61.79;101008.56;5052131;28;45335;-83
2022/09/01 03:38:27;;;;;;;;;19.00;18.25;;;;;20.85;62.05;101013.94;5053124;28;44925;-83
2022/09/01 03:40:57;;;;;;;;;21.75;20.75;;;;;20.84;62.13;101019.28;5052106;28;45408;-82
2022/09/01 03:43:26;;;;;;;;;19.00;19.00;;;;;20.80;62.37;101017.50;5051752;28;45069;-83
2022/09/01 03:45:54;;;;;;;;;20.25;20.25;;;;;20.81;61.94;101019.28;5052351;28;45295;-83
2022/09/01 03:48:20;;;;;;;;;21.75;19.50;;;;;20.78;62.61;101011.25;5068429;28;45440;-83
2022/09/01 03:50:46;;;;;;;;;17.75;17.75;;;;;20.80;62.01;101018.41;5050352;28;45100;-82
2022/09/01 03:53:18;;;;;;;;;21.25;20.50;;;;;20.68;61.98;100988.16;5053501;28;45032;-83
2022/09/01 03:55:46;;;;;;;;;21.75;21.00;;;;;20.73;62.16;101005.03;5050018;28;45756;-82
2022/09/01 03:58:17;;;;;;;;;17.75;17.75;;;;;20.57;62.18;100985.50;5053319;28;45654;-83
2022/09/01 04:00:45;;;;;;;;;25.00;21.00;;;;;20.58;62.56;100989.94;5053088;28;44949;-82
2022/09/01 04:03:12;;;;;;;;;22.75;20.00;;;;;20.68;62.51;101012.19;5052678;28;45136;-83
2022/09/01 04:05:42;;;;;;;;;20.50;20.50;;;;;20.69;62.27;101009.53;5052626;28;45597;-82
2022/09/01 04:08:12;;;;;;;;;20.00;19.75;;;;;20.70;62.49;101007.75;5052964;28;45115;-83
2022/09/01 04:10:57;;;;;;;;;20.50;20.25;;;;;20.70;62.75;101003.28;5052619;28;45072;-83
2022/09/01 04:13:32;;;;;;;;;19.50;19.25;;;;;20.58;62.57;100987.28;5053221;28;44993;-83
2022/09/01 04:15:58;;;;;;;;;20.75;18.75;;;;;20.65;62.50;100993.50;5051335;28;45172;-82
2022/09/01 04:18:24;;;;;;;;;19.50;19.00;;;;;20.66;62.74;101003.31;5051456;28;45203;-83
2022/09/01 04:20:52;;;;;;;;;21.75;21.50;;;;;20.61;62.93;100995.28;5052597;28;44887;-83
2022/09/01 04:23:25;;;;;;;;;20.00;20.00;;;;;20.55;63.34;100996.19;5052752;28;44910;-83
2022/09/01 04:26:13;;;;;;;;;21.25;19.75;;;;;20.52;63.11;100996.19;5052079;28;45431;-82
2022/09/01 04:28:49;;;;;;;;;23.00;21.75;;;;;20.46;63.07;100993.50;5090355;28;45500;-82
2022/09/01 04:31:18;;;;;;;;;18.75;18.50;;;;;20.43;63.18;100993.50;5091102;28;45182;-83
2022/09/01 04:33:46;;;;;;;;;20.25;20.25;;;;;20.40;63.51;100990.88;5091377;28;45315;-83
2022/09/01 04:36:22;;;;;;;;;23.25;21.25;;;;;20.38;63.75;100992.63;5089561;28;45385;-83
2022/09/01 04:38:55;;;;;;;;;20.25;18.50;;;;;20.37;63.64;100998.88;5092829;28;45560;-82
2022/09/01 04:41:24;;;;;;;;;23.00;22.75;;;;;20.40;63.72;100998.00;5092186;28;45201;-83
2022/09/01 04:43:50;;;;;;;;;21.75;20.75;;;;;20.40;63.98;101000.66;5093813;28;45123;-83
2022/09/01 04:46:17;;;;;;;;;18.00;17.25;;;;;20.24;63.93;100967.72;5093364;28;45535;-83
2022/09/01 04:48:44;;;;;;;;;21.50;20.00;;;;;20.38;63.75;100992.63;5092310;28;45687;-84
2022/09/01 04:51:11;;;;;;;;;22.25;20.75;;;;;20.37;64.11;100996.19;5092226;28;45139;-83
2022/09/01 04:53:37;;;;;;;;;19.50;18.25;;;;;20.35;64.05;101006.88;5089955;28;44951;-83
2022/09/01 04:56:08;;;;;;;;;19.25;18.00;;;;;20.35;64.36;100998.88;5090670;28;45858;-82
2022/09/01 04:58:35;;;;;;;;;19.50;19.50;;;;;20.36;64.39;100999.75;5090580;28;45301;-83
2022/09/01 05:01:06;;;;;;;;;23.00;21.25;;;;;20.31;64.38;100990.88;5091466;28;45151;-83
2022/09/01 05:03:31;;;;;;;;;21.00;17.75;;;;;20.36;64.49;101002.44;5093880;28;45128;-82
2022/09/01 05:05:59;;;;;;;;;18.50;18.50;;;;;20.32;64.63;100995.31;5092595;28;45170;-82
2022/09/01 05:08:25;;;;;;;;;20.00;19.75;;;;;20.43;64.08;101005.97;5092521;28;45690;-82
2022/09/01 05:10:54;;;;;;;;;19.00;18.50;;;;;20.35;63.58;100981.97;5091745;28;45264;-83
2022/09/01 05:13:22;;;;;;;;;19.50;18.75;;;;;20.50;64.00;101003.34;5093461;28;45185;-83
2022/09/01 05:16:00;;;;;;;;;20.75;19.75;;;;;20.52;63.94;101001.53;5091436;28;45909;-82
2022/09/01 05:18:26;;;;;;;;;20.00;20.00;;;;;20.43;64.13;100987.28;5092007;28;45129;-82
2022/09/01 05:20:53;;;;;;;;;18.50;18.25;;;;;20.50;63.92;100992.66;5092072;28;45032;-83
2022/09/01 05:23:19;;;;;;;;;19.00;18.50;;;;;20.44;64.31;100979.25;5092575;28;45238;-83
2022/09/01 05:25:49;;;;;;;;;21.00;19.75;;;;;20.57;63.99;100993.53;5090198;28;46067;-83
2022/09/01 05:28:18;;;;;;;;;21.75;20.50;;;;;20.53;64.19;100992.63;5092458;28;45358;-81
2022/09/01 05:30:46;;;;;;;;;19.50;19.50;;;;;20.43;64.33;100977.50;5073800;28;45283;-81
2022/09/01 05:33:15;;;;;;;;;20.00;18.50;;;;;20.47;64.70;100995.31;5091333;28;45093;-83
2022/09/01 05:35:50;;;;;;;;;19.75;18.75;;;;;20.46;64.57;101003.31;5090549;28;45138;-82
2022/09/01 05:38:16;;;;;;;;;22.00;20.00;;;;;20.45;64.68;101005.09;5090995;28;45110;-81
2022/09/01 05:40:43;;;;;;;;;22.00;20.25;;;;;20.43;65.14;101000.63;5090471;28;44865;-82
2022/09/01 05:43:11;;;;;;;;;19.00;18.50;;;;;20.44;65.21;100999.72;5091221;28;44862;-82
2022/09/01 05:45:42;;;;;;;;;20.25;18.00;;;;;20.46;65.06;101001.53;5090322;28;45291;-81
2022/09/01 05:48:13;;;;;;;;;18.75;17.50;;;;;20.46;65.15;101009.53;5090759;28;45017;-82
2022/09/01 05:50:41;;;;;;;;;19.00;18.25;;;;;20.48;65.51;100998.88;5090462;28;45055;-82
2022/09/01 05:53:16;;;;;;;;;19.50;18.50;;;;;20.55;65.34;101006.00;5091727;28;45162;-83
2022/09/01 05:55:43;;;;;;;;;17.50;17.25;;;;;20.62;65.67;101005.06;5090618;28;45691;-83
2022/09/01 05:58:12;;;;;;;;;20.00;20.00;;;;;20.64;65.33;100994.38;5091306;28;45212;-83
2022/09/01 06:00:47;;;;;;;;;15.25;15.00;;;;;20.71;65.72;101005.06;5090005;28;45161;-82
2022/09/01 06:03:14;;;;;;;;;18.75;16.75;;;;;20.72;65.83;100992.59;5091180;28;45000;-82
2022/09/01 06:05:41;;;;;;;;;17.00;16.25;;;;;20.72;65.96;100996.16;5091871;28;45088;-82
2022/09/01 06:08:09;;;;;;;;;13.75;13.75;;;;;20.76;66.18;101000.59;5091912;28;45505;-82
2022/09/01 06:10:38;;;;;;;;;15.25;14.50;;;;;20.66;66.22;100977.47;5088628;28;45449;-82
2022/09/01 06:13:05;;;;;;;;;14.00;13.00;;;;;20.72;66.10;100987.25;5091998;28;45414;-82
2022/09/01 06:15:31;;;;;;;;;14.50;13.00;;;;;20.85;66.29;101000.56;5088395;28;45898;-82
2022/09/01 06:17:57;;;;;;;;;14.25;13.50;;;;;20.90;66.20;101002.34;5092182;28;45004;-82
2022/09/01 06:20:23;;;;;;;;;15.25;14.75;;;;;21.00;65.96;101012.09;5090757;28;44863;-82
2022/09/01 06:22:51;;;;;;;;;13.25;13.25;;;;;20.99;65.75;101003.19;5091450;28;45163;-83
2022/09/01 06:25:17;;;;;;;;;14.75;13.50;;;;;21.15;65.76;101008.47;5090789;28;45254;-82
2022/09/01 06:27:44;;;;;;;;;12.50;11.00;;;;;21.21;65.62;101016.44;5091226;28;45120;-82
2022/09/01 06:30:16;;;;;;;;;12.25;12.00;;;;;21.16;65.53;100995.09;5091944;28;45125;-82
2022/09/01 06:32:43;;;;;;;;;13.00;12.50;;;;;21.35;65.21;101017.31;5090086;28;44984;-83
2022/09/01 06:35:14;;;;;;;;;12.75;12.25;;;;;21.31;64.97;100994.16;5072911;28;45603;-82
2022/09/01 06:37:42;;;;;;;;;15.50;14.25;;;;;21.47;64.91;101011.88;5089907;28;45665;-83
2022/09/01 06:40:15;;;;;;;;;12.50;12.50;;;;;21.52;64.77;101012.75;5090752;28;45565;-82
2022/09/01 06:42:42;;;;;;;;;13.25;12.50;;;;;21.59;65.08;101008.25;5090958;28;45236;-83
2022/09/01 06:45:09;;;;;;;;;14.00;13.00;;;;;21.62;64.63;101005.53;5089165;28;45843;-82
2022/09/01 06:47:35;;;;;;;;;14.00;13.50;;;;;21.69;64.85;101007.28;5089602;28;45117;-82
2022/09/01 06:50:01;;;;;;;;;15.25;13.50;;;;;21.75;64.20;101019.75;5091934;28;44899;-82
2022/09/01 06:52:26;;;;;;;;;16.75;14.50;;;;;21.78;64.10;101012.59;5091223;28;44926;-83
2022/09/01 06:54:52;;;;;;;;;14.33;13.33;;;;;21.80;64.07;101009.88;5091236;28;48945;-82
2022/09/01 06:57:18;;;;;;;;;12.50;11.50;;;;;21.66;64.26;100979.66;5086255;28;45086;-82
2022/09/01 06:59:44;;;;;;;;;12.75;11.50;;;;;21.91;63.98;101016.03;5091412;28;44986;-82
2022/09/01 07:02:15;;;;;;;;;15.50;12.50;;;;;21.91;63.70;101010.69;5089353;28;45048;-83
2022/09/01 07:04:42;;;;;;;;;12.75;11.50;;;;;21.83;63.86;101000.06;5089606;28;45208;-82
2022/09/01 07:07:09;;;;;;;;;14.25;13.25;;;;;21.94;63.19;101020.50;5090141;28;45215;-81
2022/09/01 07:09:35;;;;;;;;;14.50;12.00;;;;;21.89;63.22;101016.06;5090917;28;45013;-82
2022/09/01 07:12:02;;;;;;;;;12.25;11.50;;;;;21.73;63.69;100981.41;5089740;28;45043;-83
2022/09/01 07:14:29;;;;;;;;;17.50;15.50;;;;;21.92;63.78;101015.16;5089971;28;46432;-83
2022/09/01 07:16:54;;;;;;;;;14.25;12.25;;;;;21.96;63.69;101014.22;5089585;28;45307;-83
2022/09/01 07:19:19;;;;;;;;;13.50;13.50;;;;;21.99;63.60;101021.34;5090450;28;44958;-82
2022/09/01 07:21:45;;;;;;;;;13.25;12.25;;;;;22.02;63.15;101006.16;5091152;28;44990;-82
2022/09/01 07:24:11;;;;;;;;;13.25;13.00;;;;;22.08;63.05;101016.81;5088091;28;45151;-82
2022/09/01 07:26:39;;;;;;;;;14.75;14.50;;;;;22.13;62.98;101014.13;5088824;28;45306;-83
2022/09/01 07:29:05;;;;;;;;;15.25;14.25;;;;;22.01;63.17;100982.06;5090890;28;45307;-83
2022/09/01 07:31:37;;;;;;;;;18.00;16.75;;;;;22.13;62.91;100998.94;5090882;28;45021;-82
2022/09/01 07:34:05;;;;;;;;;17.50;17.25;;;;;22.16;62.36;100987.31;5091337;28;45538;-83
2022/09/01 07:36:31;;;;;;;;;18.00;16.75;;;;;22.40;62.21;101023.69;5090855;28;45611;-82
2022/09/01 07:38:58;;;;;;;;;16.00;12.75;;;;;22.29;62.34;101001.47;5090672;28;45003;-83
2022/09/01 07:41:25;;;;;;;;;16.00;14.75;;;;;22.49;62.17;101025.41;5089522;28;45120;-83
2022/09/01 07:43:52;;;;;;;;;19.25;17.50;;;;;22.44;61.95;101014.72;5089394;28;45199;-83
2022/09/01 07:46:22;;;;;;;;;15.25;15.00;;;;;22.57;61.65;101026.22;5090757;28;45078;-83
2022/09/01 07:48:50;;;;;;;;;17.00;15.50;;;;;22.51;61.96;101018.22;5090769;28;45106;-82
2022/09/01 07:51:18;;;;;;;;;13.75;12.50;;;;;22.57;62.69;101029.78;5090856;28;44869;-82
2022/09/01 07:53:47;;;;;;;;;16.25;14.25;;;;;22.57;62.41;101028.91;5092118;27;45759;-83
2022/09/01 07:56:15;;;;;;;;;15.25;14.25;;;;;22.56;62.47;101035.13;5091901;28;45204;-83
2022/09/01 07:58:41;;;;;;;;;12.75;12.50;;;;;22.42;62.41;101015.66;5093935;28;44912;-83
2022/09/01 08:01:09;;;;;;;;;12.67;11.67;;;;;22.50;62.13;101033.41;5092613;28;49349;-83
2022/09/01 08:03:34;;;;;;;;;16.25;14.25;;;;;22.44;62.15;101032.59;5093640;28;45355;-82
2022/09/01 08:06:06;;;;;;;;;16.00;15.25;;;;;22.34;62.60;101021.06;5093778;28;45027;-83
2022/09/01 08:08:33;;;;;;;;;14.50;13.75;;;;;22.43;62.85;101029.03;5091686;28;44974;-83
2022/09/01 08:10:58;;;;;;;;;13.50;13.25;;;;;22.41;62.13;101022.78;5092088;28;45199;-83
2022/09/01 08:13:24;;;;;;;;;17.00;15.75;;;;;22.36;62.32;101011.22;5093878;28;45565;-83
2022/09/01 08:15:49;;;;;;;;;15.50;13.75;;;;;22.44;62.38;101022.75;5093632;28;45061;-82
2022/09/01 08:18:15;;;;;;;;;17.50;17.25;;;;;22.42;62.66;101015.66;5094223;28;45022;-81
2022/09/01 08:20:46;;;;;;;;;15.75;15.75;;;;;22.48;62.67;101027.19;5093947;28;45038;-81
2022/09/01 08:23:14;;;;;;;;;17.25;16.00;;;;;22.51;62.50;101031.63;5093155;28;46448;-82
2022/09/01 08:25:41;;;;;;;;;14.25;12.00;;;;;22.53;62.00;101027.16;5092747;28;45604;-82
2022/09/01 08:28:07;;;;;;;;;17.75;16.75;;;;;22.54;62.07;101039.63;5093595;28;45140;-83
2022/09/01 08:30:34;;;;;;;;;20.00;16.50;;;;;22.50;61.96;101025.38;5093415;28;45123;-83
2022/09/01 08:33:00;;;;;;;;;15.25;14.50;;;;;22.55;62.03;101034.25;5093562;28;46437;-82
2022/09/01 08:35:28;;;;;;;;;14.50;13.50;;;;;22.57;62.59;101036.94;5093506;28;45185;-83
2022/09/01 08:37:54;;;;;;;;;15.25;15.25;;;;;22.61;62.17;101044.00;5092143;28;45221;-83
2022/09/01 08:40:22;;;;;;;;;14.25;13.25;;;;;22.63;62.07;101047.59;5091918;28;44962;-83
2022/09/01 08:43:05;;;;;;;;;11.00;11.00;;;;;22.65;61.95;101043.09;5092736;28;46064;-83
2022/09/01 08:45:49;;;;;;;;;15.25;13.75;;;;;22.60;62.05;101023.50;5093614;28;45070;-83
2022/09/01 08:48:15;;;;;;;;;14.00;14.00;;;;;22.77;62.74;101039.41;5093603;28;45041;-82
2022/09/01 08:50:43;;;;;;;;;18.00;16.00;;;;;22.79;61.51;101030.44;5093253;28;45164;-83
2022/09/01 08:53:21;;;;;;;;;19.00;17.25;;;;;22.85;61.44;101033.03;5074612;28;47607;-83
2022/09/01 08:55:53;;;;;;;;;14.00;13.75;;;;;22.95;61.60;101039.22;5090459;28;45603;-83
2022/09/01 08:58:18;;;;;;;;;17.00;16.25;;;;;23.02;61.83;101037.38;5093261;28;45433;-83
2022/09/01 09:00:52;;;;;;;;;14.33;14.33;;;;;23.08;61.30;101038.16;5092226;28;52989;-83
2022/09/01 09:03:36;;;;;;;;;20.00;17.50;;;;;23.11;60.95;101045.31;5092823;28;45219;-83
2022/09/01 09:06:13;;;;;;;;;16.50;16.25;;;;;23.12;61.29;101042.59;5091841;28;45118;-83
2022/09/01 09:08:53;;;;;;;;;12.25;12.25;;;;;23.15;60.32;101049.69;5092797;28;45056;-83
2022/09/01 09:11:39;;;;;;;;;17.25;17.25;;;;;22.98;61.15;101008.81;5090532;28;45386;-82
2022/09/01 09:14:24;;;;;;;;;18.25;18.00;;;;;23.22;60.87;101046.03;5092561;28;45951;-82
2022/09/01 09:16:54;;;;;;;;;16.25;14.75;;;;;23.27;60.62;101041.50;5091393;28;45299;-83
2022/09/01 09:19:32;;;;;;;;;15.25;14.50;;;;;23.32;60.23;101044.13;5093074;27;45112;-84
2022/09/01 09:22:01;;;;;;;;;13.75;13.00;;;;;23.35;60.65;101042.31;5093052;28;45192;-83
2022/09/01 09:24:27;;;;;;;;;15.75;13.75;;;;;23.41;60.47;101042.22;5092391;28;46060;-83
2022/09/01 09:26:55;;;;;;;;;17.25;15.50;;;;;23.47;60.35;101035.00;5091403;28;45569;-83
2022/09/01 09:29:21;;;;;;;;;15.75;15.00;;;;;23.49;60.28;101020.63;5091291;28;45064;-83
2022/09/01 09:31:48;;;;;;;;;15.50;14.50;;;;;23.52;59.91;101025.09;5093329;28;45307;-83
2022/09/01 09:34:29;;;;;;;;;17.25;16.00;;;;;23.62;59.90;101027.59;5092711;28;45871;-82
2022/09/01 09:36:54;;;;;;;;;13.00;12.25;;;;;23.68;59.69;101023.97;5092733;28;45111;-83
2022/09/01 09:39:20;;;;;;;;;17.25;17.25;;;;;23.66;59.30;101007.91;5092297;28;45055;-83
2022/09/01 09:42:21;;;;;;;;;16.00;15.75;;;;;23.84;59.30;101022.84;5091044;28;45213;-83
2022/09/01 09:44:51;;;;;;;;;13.25;13.00;;;;;23.78;59.13;101004.13;5029744;28;45978;-83
2022/09/01 09:47:53;;;;;;;;;15.00;15.00;;;;;23.96;59.28;101019.06;5062870;28;45745;-83
2022/09/01 09:50:36;;;;;;;;;14.75;14.50;;;;;24.03;58.28;101026.09;5029295;28;45214;-83
2022/09/01 09:53:25;;;;;;;;;16.25;16.00;;;;;24.08;58.54;101020.66;5087233;28;45289;-82
2022/09/01 09:56:03;;;;;;;;;15.25;15.00;;;;;24.12;58.74;101012.53;5090994;28;45993;-83
2022/09/01 09:58:35;;;;;;;;;16.25;15.25;;;;;24.12;58.17;101003.59;5090889;28;45385;-83
2022/09/01 10:01:05;;;;;;;;;18.25;15.75;;;;;24.25;58.27;101015.03;5091454;28;45049;-83
2022/09/01 10:03:44;;;;;;;;;16.00;15.00;;;;;24.31;57.66;101023.84;5092218;28;45072;-82
2022/09/01 10:06:29;;;;;;;;;14.00;14.00;;;;;24.35;58.20;101013.94;5092379;28;45170;-83
2022/09/01 10:08:55;;;;;;;;;17.00;16.00;;;;;24.31;58.69;100994.28;5091814;28;45475;-83
2022/09/01 10:11:28;;;;;;;;;16.00;15.00;;;;;24.50;57.87;101002.94;5090376;28;45037;-82
2022/09/01 10:13:54;;;;;;;;;13.25;13.00;;;;;24.59;57.69;101001.91;5091557;28;44950;-83
2022/09/01 10:16:33;;;;;;;;;12.00;11.25;;;;;24.71;57.09;101007.00;5091831;27;45685;-83
2022/09/01 10:19:01;;;;;;;;;13.00;13.00;;;;;24.82;57.26;101004.09;5092231;28;45001;-83
2022/09/01 10:21:39;;;;;;;;;13.00;13.00;;;;;24.92;57.21;101003.88;5092122;28;44990;-83
2022/09/01 10:24:34;;;;;;;;;13.25;13.25;;;;;25.06;56.62;101009.00;5091920;28;45024;-83
2022/09/01 10:27:03;;;;;;;;;15.25;14.00;;;;;25.12;56.14;101003.53;5086273;28;45360;-83
2022/09/01 10:29:35;;;;;;;;;14.25;13.50;;;;;25.01;56.51;100972.34;5091559;28;45197;-83
2022/09/01 10:32:07;;;;;;;;;13.50;12.50;;;;;25.26;56.00;100983.50;5091090;28;45133;-82
2022/09/01 10:34:36;;;;;;;;;12.50;12.00;;;;;25.51;55.38;101006.25;5091804;28;45057;-83
2022/09/01 10:37:03;;;;;;;;;14.75;13.50;;;;;25.56;55.30;100982.78;5091229;28;46134;-82
2022/09/01 10:39:28;;;;;;;;;15.00;13.50;;;;;25.80;54.87;100986.75;5090941;28;45236;-82
2022/09/01 10:41:56;;;;;;;;;13.00;13.00;;;;;26.01;54.54;100985.34;5091192;28;44888;-83
2022/09/01 10:44:32;;;;;;;;;14.25;13.50;;;;;26.22;53.83;100983.91;5091312;28;44899;-82
2022/09/01 10:47:07;;;;;;;;;14.50;14.00;;;;;26.49;53.94;100987.69;5091225;28;45505;-83
2022/09/01 10:49:32;;;;;;;;;13.25;12.75;;;;;26.69;53.29;100979.03;5091468;28;45048;-83
2022/09/01 10:51:58;;;;;;;;;13.25;13.00;;;;;26.78;52.71;100977.91;5091586;28;44893;-82
2022/09/01 10:54:38;;;;;;;;;14.75;14.50;;;;;26.93;52.20;100980.16;5091291;28;45317;-83
2022/09/01 10:57:27;;;;;;;;;14.00;13.75;;;;;27.02;52.03;100985.28;5090010;28;46120;-82
2022/09/01 10:59:53;;;;;;;;;12.25;12.00;;;;;26.97;51.74;100974.63;5091193;28;45736;-83
2022/09/01 11:02:20;;;;;;;;;12.25;11.50;;;;;27.03;51.02;100962.75;5091228;28;45084;-83
2022/09/01 11:04:45;;;;;;;;;13.25;12.25;;;;;27.19;51.04;100985.72;5091521;28;45056;-82
2022/09/01 11:07:17;;;;;;;;;13.67;13.00;;;;;27.23;50.29;100986.47;5072609;28;46111;-83
2022/09/01 11:09:47;;;;;;;;;9.50;9.00;;;;;27.29;50.53;100989.00;5090614;28;45083;-84
2022/09/01 11:12:24;;;;;;;;;12.00;12.00;;;;;27.33;50.37;100981.69;5090289;28;45020;-83
2022/09/01 11:15:03;;;;;;;;;12.00;11.75;;;;;27.37;50.31;100973.44;5090874;28;45021;-83
2022/09/01 11:17:54;;;;;;;;;11.00;11.00;;;;;27.43;50.01;100972.38;5090728;28;45277;-83
2022/09/01 11:20:24;;;;;;;;;10.50;10.00;;;;;27.50;49.46;100979.34;5090492;28;45158;-82
2022/09/01 11:22:56;;;;;;;;;11.00;10.75;;;;;27.56;49.47;100971.03;5090838;27;44973;-83
2022/09/01 11:25:38;;;;;;;;;11.75;10.75;;;;;27.67;48.73;100970.69;5071268;28;45187;-83